sensor_id;sensor_type;location;lat;lon;timestamp;P1;durP1;ratioP1;P2;durP2;ratioP2
23634;SDS011;11994;51.038;16.974;2023-02-28T00:01:08;36.20;;;19.90;;
23634;SDS011;11994;51.038;16.974;2023-02-28T00:03:34;36.90;;;21.40;;
23634;SDS011;11994;51.038;16.974;2023-02-28T00:06:01;34.50;;;19.80;;
23634;SDS011;11994;51.038;16.974;2023-02-28T00:08:30;34.70;;;20.20;;
23634;SDS011;11994;51.038;16.974;2023-02-28T00:10:55;37.00;;;22.20;;
23634;SDS011;11994;51.038;16.974;2023-02-28T00:13:21;42.20;;;23.20;;
23634;SDS011;11994;51.038;16.974;2023-02-28T00:15:46;36.90;;;23.40;;
23634;SDS011;11994;51.038;16.974;2023-02-28T00:18:11;39.90;;;23.70;;
23634;SDS011;11994;51.038;16.974;2023-02-28T00:20:38;37.80;;;23.10;;
23634;SDS011;11994;51.038;16.974;2023-02-28T00:23:04;34.10;;;20.90;;
23634;SDS011;11994;51.038;16.974;2023-02-28T00:25:29;39.70;;;21.60;;
23634;SDS011;11994;51.038;16.974;2023-02-28T00:27:55;35.30;;;21.70;;
23634;SDS011;11994;51.038;16.974;2023-02-28T00:30:21;40.00;;;21.50;;
23634;SDS011;11994;51.038;16.974;2023-02-28T00:32:48;35.20;;;20.80;;
23634;SDS011;11994;51.038;16.974;2023-02-28T00:35:14;37.70;;;21.00;;
23634;SDS011;11994;51.038;16.974;2023-02-28T00:37:40;34.40;;;19.70;;
23634;SDS011;11994;51.038;16.974;2023-02-28T00:40:06;29.40;;;18.10;;
23634;SDS011;11994;51.038;16.974;2023-02-28T00:42:33;32.80;;;19.00;;
23634;SDS011;11994;51.038;16.974;2023-02-28T00:44:59;30.40;;;19.20;;
23634;SDS011;11994;51.038;16.974;2023-02-28T00:47:25;34.20;;;19.40;;
23634;SDS011;11994;51.038;16.974;2023-02-28T00:49:50;35.60;;;19.30;;
23634;SDS011;11994;51.038;16.974;2023-02-28T00:52:16;31.50;;;19.30;;
23634;SDS011;11994;51.038;16.974;2023-02-28T00:54:41;35.30;;;20.30;;
23634;SDS011;11994;51.038;16.974;2023-02-28T00:57:07;33.70;;;19.80;;
23634;SDS011;11994;51.038;16.974;2023-02-28T00:59:32;33.30;;;21.10;;
23634;SDS011;11994;51.038;16.974;2023-02-28T01:01:57;37.20;;;20.60;;
23634;SDS011;11994;51.038;16.974;2023-02-28T01:04:23;34.30;;;20.70;;
23634;SDS011;11994;51.038;16.974;2023-02-28T01:06:48;38.90;;;21.20;;
23634;SDS011;11994;51.038;16.974;2023-02-28T01:09:13;39.10;;;23.20;;
23634;SDS011;11994;51.038;16.974;2023-02-28T01:11:39;34.50;;;22.00;;
23634;SDS011;11994;51.038;16.974;2023-02-28T01:14:06;37.30;;;20.70;;
23634;SDS011;11994;51.038;16.974;2023-02-28T01:16:32;36.40;;;21.60;;
23634;SDS011;11994;51.038;16.974;2023-02-28T01:18:57;33.80;;;20.80;;
23634;SDS011;11994;51.038;16.974;2023-02-28T01:21:23;32.10;;;19.80;;
23634;SDS011;11994;51.038;16.974;2023-02-28T01:23:48;39.50;;;20.90;;
23634;SDS011;11994;51.038;16.974;2023-02-28T01:26:16;34.30;;;21.70;;
23634;SDS011;11994;51.038;16.974;2023-02-28T01:28:43;34.60;;;20.80;;
23634;SDS011;11994;51.038;16.974;2023-02-28T01:31:09;31.90;;;18.70;;
23634;SDS011;11994;51.038;16.974;2023-02-28T01:33:35;29.00;;;16.90;;
23634;SDS011;11994;51.038;16.974;2023-02-28T01:36:02;29.60;;;16.40;;
23634;SDS011;11994;51.038;16.974;2023-02-28T01:38:33;27.80;;;16.30;;
23634;SDS011;11994;51.038;16.974;2023-02-28T01:40:59;30.90;;;16.80;;
23634;SDS011;11994;51.038;16.974;2023-02-28T01:45:54;29.60;;;16.60;;
23634;SDS011;11994;51.038;16.974;2023-02-28T01:48:22;28.90;;;17.50;;
23634;SDS011;11994;51.038;16.974;2023-02-28T01:50:56;28.30;;;16.70;;
23634;SDS011;11994;51.038;16.974;2023-02-28T01:53:27;26.10;;;16.50;;
23634;SDS011;11994;51.038;16.974;2023-02-28T01:55:57;27.70;;;16.60;;
23634;SDS011;11994;51.038;16.974;2023-02-28T01:58:23;25.30;;;16.90;;
23634;SDS011;11994;51.038;16.974;2023-02-28T02:00:49;26.20;;;16.60;;
23634;SDS011;11994;51.038;16.974;2023-02-28T02:03:15;27.90;;;16.50;;
23634;SDS011;11994;51.038;16.974;2023-02-28T02:05:44;28.60;;;17.40;;
23634;SDS011;11994;51.038;16.974;2023-02-28T02:08:13;27.30;;;16.50;;
23634;SDS011;11994;51.038;16.974;2023-02-28T02:10:44;27.20;;;16.30;;
23634;SDS011;11994;51.038;16.974;2023-02-28T02:27:19;28.10;;;17.00;;
23634;SDS011;11994;51.038;16.974;2023-02-28T02:36:14;27.60;;;17.30;;
23634;SDS011;11994;51.038;16.974;2023-02-28T02:38:56;27.50;;;17.00;;
23634;SDS011;11994;51.038;16.974;2023-02-28T02:41:35;26.90;;;17.20;;
23634;SDS011;11994;51.038;16.974;2023-02-28T02:46:50;27.90;;;16.10;;
23634;SDS011;11994;51.038;16.974;2023-02-28T02:49:21;27.10;;;16.40;;
23634;SDS011;11994;51.038;16.974;2023-02-28T02:51:55;29.00;;;16.80;;
23634;SDS011;11994;51.038;16.974;2023-02-28T02:54:27;27.20;;;16.00;;
23634;SDS011;11994;51.038;16.974;2023-02-28T02:56:57;27.30;;;16.60;;
23634;SDS011;11994;51.038;16.974;2023-02-28T02:59:25;28.00;;;16.70;;
23634;SDS011;11994;51.038;16.974;2023-02-28T03:01:54;31.80;;;17.90;;
23634;SDS011;11994;51.038;16.974;2023-02-28T03:04:23;30.00;;;18.10;;
23634;SDS011;11994;51.038;16.974;2023-02-28T03:06:52;25.10;;;16.40;;
23634;SDS011;11994;51.038;16.974;2023-02-28T03:09:20;29.60;;;18.60;;
23634;SDS011;11994;51.038;16.974;2023-02-28T03:11:50;30.00;;;18.30;;
23634;SDS011;11994;51.038;16.974;2023-02-28T03:16:56;31.60;;;18.10;;
23634;SDS011;11994;51.038;16.974;2023-02-28T03:33:12;31.30;;;19.90;;
23634;SDS011;11994;51.038;16.974;2023-02-28T03:35:45;30.20;;;18.10;;
23634;SDS011;11994;51.038;16.974;2023-02-28T03:38:39;26.00;;;16.40;;
23634;SDS011;11994;51.038;16.974;2023-02-28T03:41:10;26.70;;;16.80;;
23634;SDS011;11994;51.038;16.974;2023-02-28T03:43:40;29.90;;;17.80;;
23634;SDS011;11994;51.038;16.974;2023-02-28T03:46:10;31.40;;;18.10;;
23634;SDS011;11994;51.038;16.974;2023-02-28T03:48:48;31.50;;;19.00;;
23634;SDS011;11994;51.038;16.974;2023-02-28T03:51:18;33.70;;;18.90;;
23634;SDS011;11994;51.038;16.974;2023-02-28T03:53:50;31.90;;;18.20;;
23634;SDS011;11994;51.038;16.974;2023-02-28T03:56:19;28.30;;;18.00;;
23634;SDS011;11994;51.038;16.974;2023-02-28T04:01:28;33.60;;;18.90;;
23634;SDS011;11994;51.038;16.974;2023-02-28T04:03:59;29.90;;;18.40;;
23634;SDS011;11994;51.038;16.974;2023-02-28T04:06:24;30.10;;;18.80;;
23634;SDS011;11994;51.038;16.974;2023-02-28T04:08:50;28.40;;;18.50;;
23634;SDS011;11994;51.038;16.974;2023-02-28T04:13:50;36.70;;;23.40;;
23634;SDS011;11994;51.038;16.974;2023-02-28T04:16:15;37.00;;;22.20;;
23634;SDS011;11994;51.038;16.974;2023-02-28T04:18:41;37.10;;;22.20;;
23634;SDS011;11994;51.038;16.974;2023-02-28T04:21:08;37.10;;;22.60;;
23634;SDS011;11994;51.038;16.974;2023-02-28T04:23:34;40.70;;;23.00;;
23634;SDS011;11994;51.038;16.974;2023-02-28T04:25:59;34.30;;;20.80;;
23634;SDS011;11994;51.038;16.974;2023-02-28T04:28:25;33.10;;;18.30;;
23634;SDS011;11994;51.038;16.974;2023-02-28T04:30:57;32.10;;;18.10;;
23634;SDS011;11994;51.038;16.974;2023-02-28T04:33:23;29.00;;;18.00;;
23634;SDS011;11994;51.038;16.974;2023-02-28T04:35:57;29.10;;;18.30;;
23634;SDS011;11994;51.038;16.974;2023-02-28T04:38:28;30.20;;;18.90;;
23634;SDS011;11994;51.038;16.974;2023-02-28T04:40:56;31.80;;;18.60;;
23634;SDS011;11994;51.038;16.974;2023-02-28T04:43:22;28.40;;;18.80;;
23634;SDS011;11994;51.038;16.974;2023-02-28T04:45:48;29.40;;;18.70;;
23634;SDS011;11994;51.038;16.974;2023-02-28T04:48:13;32.10;;;19.50;;
23634;SDS011;11994;51.038;16.974;2023-02-28T04:50:38;30.10;;;17.60;;
23634;SDS011;11994;51.038;16.974;2023-02-28T04:53:04;30.30;;;18.70;;
23634;SDS011;11994;51.038;16.974;2023-02-28T04:55:29;28.00;;;18.10;;
23634;SDS011;11994;51.038;16.974;2023-02-28T04:57:54;32.90;;;19.90;;
23634;SDS011;11994;51.038;16.974;2023-02-28T05:00:20;32.90;;;22.90;;
23634;SDS011;11994;51.038;16.974;2023-02-28T05:02:45;37.80;;;22.30;;
23634;SDS011;11994;51.038;16.974;2023-02-28T05:05:11;44.30;;;23.60;;
23634;SDS011;11994;51.038;16.974;2023-02-28T05:07:41;48.90;;;24.00;;
23634;SDS011;11994;51.038;16.974;2023-02-28T05:10:07;37.70;;;21.70;;
23634;SDS011;11994;51.038;16.974;2023-02-28T05:12:32;32.70;;;18.40;;
23634;SDS011;11994;51.038;16.974;2023-02-28T05:14:58;27.40;;;17.00;;
23634;SDS011;11994;51.038;16.974;2023-02-28T05:17:23;31.70;;;18.10;;
23634;SDS011;11994;51.038;16.974;2023-02-28T05:19:49;33.20;;;18.00;;
23634;SDS011;11994;51.038;16.974;2023-02-28T05:22:14;31.20;;;18.50;;
23634;SDS011;11994;51.038;16.974;2023-02-28T05:24:41;31.50;;;18.90;;
23634;SDS011;11994;51.038;16.974;2023-02-28T05:27:07;31.20;;;18.90;;
23634;SDS011;11994;51.038;16.974;2023-02-28T05:29:33;33.00;;;17.50;;
23634;SDS011;11994;51.038;16.974;2023-02-28T05:31:59;27.60;;;18.10;;
23634;SDS011;11994;51.038;16.974;2023-02-28T05:34:24;31.20;;;19.00;;
23634;SDS011;11994;51.038;16.974;2023-02-28T05:36:49;28.00;;;18.10;;
23634;SDS011;11994;51.038;16.974;2023-02-28T05:39:15;27.70;;;17.90;;
23634;SDS011;11994;51.038;16.974;2023-02-28T05:41:41;26.80;;;17.40;;
23634;SDS011;11994;51.038;16.974;2023-02-28T05:44:07;30.40;;;17.50;;
23634;SDS011;11994;51.038;16.974;2023-02-28T05:46:32;30.60;;;18.20;;
23634;SDS011;11994;51.038;16.974;2023-02-28T05:48:58;29.10;;;18.20;;
23634;SDS011;11994;51.038;16.974;2023-02-28T05:51:25;26.60;;;17.40;;
23634;SDS011;11994;51.038;16.974;2023-02-28T05:53:50;37.40;;;23.70;;
23634;SDS011;11994;51.038;16.974;2023-02-28T05:56:16;30.90;;;21.50;;
23634;SDS011;11994;51.038;16.974;2023-02-28T05:58:41;35.80;;;20.50;;
23634;SDS011;11994;51.038;16.974;2023-02-28T06:01:30;43.30;;;22.10;;
23634;SDS011;11994;51.038;16.974;2023-02-28T06:03:59;52.80;;;26.70;;
23634;SDS011;11994;51.038;16.974;2023-02-28T06:06:25;60.10;;;26.10;;
23634;SDS011;11994;51.038;16.974;2023-02-28T06:08:50;48.50;;;24.10;;
23634;SDS011;11994;51.038;16.974;2023-02-28T06:11:16;42.20;;;20.80;;
23634;SDS011;11994;51.038;16.974;2023-02-28T06:13:41;36.10;;;20.60;;
23634;SDS011;11994;51.038;16.974;2023-02-28T06:16:07;36.40;;;22.60;;
23634;SDS011;11994;51.038;16.974;2023-02-28T06:18:34;40.10;;;24.10;;
23634;SDS011;11994;51.038;16.974;2023-02-28T06:20:59;48.50;;;28.90;;
23634;SDS011;11994;51.038;16.974;2023-02-28T06:23:24;55.80;;;32.60;;
23634;SDS011;11994;51.038;16.974;2023-02-28T06:25:50;58.20;;;30.90;;
23634;SDS011;11994;51.038;16.974;2023-02-28T06:28:15;53.00;;;29.70;;
23634;SDS011;11994;51.038;16.974;2023-02-28T06:30:41;38.30;;;22.20;;
23634;SDS011;11994;51.038;16.974;2023-02-28T06:33:06;67.50;;;37.30;;
23634;SDS011;11994;51.038;16.974;2023-02-28T06:35:32;184.80;;;94.80;;
23634;SDS011;11994;51.038;16.974;2023-02-28T06:37:57;78.40;;;40.30;;
23634;SDS011;11994;51.038;16.974;2023-02-28T06:40:22;49.10;;;25.50;;
23634;SDS011;11994;51.038;16.974;2023-02-28T06:42:48;40.50;;;23.40;;
23634;SDS011;11994;51.038;16.974;2023-02-28T06:45:13;63.70;;;38.20;;
23634;SDS011;11994;51.038;16.974;2023-02-28T06:47:39;57.00;;;33.50;;
23634;SDS011;11994;51.038;16.974;2023-02-28T06:50:06;69.60;;;38.40;;
23634;SDS011;11994;51.038;16.974;2023-02-28T06:52:33;35.60;;;24.60;;
23634;SDS011;11994;51.038;16.974;2023-02-28T06:55:01;26.10;;;17.10;;
23634;SDS011;11994;51.038;16.974;2023-02-28T06:57:27;24.80;;;17.50;;
23634;SDS011;11994;51.038;16.974;2023-02-28T06:59:56;28.20;;;18.70;;
23634;SDS011;11994;51.038;16.974;2023-02-28T07:02:23;24.30;;;17.90;;
23634;SDS011;11994;51.038;16.974;2023-02-28T07:04:48;25.10;;;16.80;;
23634;SDS011;11994;51.038;16.974;2023-02-28T07:07:14;22.90;;;17.00;;
23634;SDS011;11994;51.038;16.974;2023-02-28T07:09:39;26.10;;;18.30;;
23634;SDS011;11994;51.038;16.974;2023-02-28T07:12:05;26.90;;;17.70;;
23634;SDS011;11994;51.038;16.974;2023-02-28T07:14:30;25.60;;;17.60;;
23634;SDS011;11994;51.038;16.974;2023-02-28T07:16:55;22.50;;;16.70;;
23634;SDS011;11994;51.038;16.974;2023-02-28T07:19:21;24.40;;;17.10;;
23634;SDS011;11994;51.038;16.974;2023-02-28T07:21:46;24.90;;;18.00;;
23634;SDS011;11994;51.038;16.974;2023-02-28T07:24:11;24.00;;;18.00;;
23634;SDS011;11994;51.038;16.974;2023-02-28T07:26:37;20.40;;;16.10;;
23634;SDS011;11994;51.038;16.974;2023-02-28T07:29:02;22.30;;;17.60;;
23634;SDS011;11994;51.038;16.974;2023-02-28T07:31:28;22.60;;;15.10;;
23634;SDS011;11994;51.038;16.974;2023-02-28T07:33:53;19.50;;;15.20;;
23634;SDS011;11994;51.038;16.974;2023-02-28T07:36:19;19.20;;;14.40;;
23634;SDS011;11994;51.038;16.974;2023-02-28T07:38:45;18.90;;;14.00;;
23634;SDS011;11994;51.038;16.974;2023-02-28T07:41:18;18.70;;;13.60;;
23634;SDS011;11994;51.038;16.974;2023-02-28T07:43:46;20.10;;;14.30;;
23634;SDS011;11994;51.038;16.974;2023-02-28T07:46:12;16.20;;;12.50;;
23634;SDS011;11994;51.038;16.974;2023-02-28T07:48:42;17.30;;;13.30;;
23634;SDS011;11994;51.038;16.974;2023-02-28T07:51:08;21.60;;;14.90;;
23634;SDS011;11994;51.038;16.974;2023-02-28T07:53:34;16.20;;;11.90;;
23634;SDS011;11994;51.038;16.974;2023-02-28T07:56:00;16.20;;;12.70;;
23634;SDS011;11994;51.038;16.974;2023-02-28T07:58:27;17.40;;;13.00;;
23634;SDS011;11994;51.038;16.974;2023-02-28T08:00:53;16.90;;;12.90;;
23634;SDS011;11994;51.038;16.974;2023-02-28T08:03:20;19.00;;;13.50;;
23634;SDS011;11994;51.038;16.974;2023-02-28T08:05:46;19.20;;;14.30;;
23634;SDS011;11994;51.038;16.974;2023-02-28T08:08:13;22.00;;;14.90;;
23634;SDS011;11994;51.038;16.974;2023-02-28T08:10:39;22.20;;;15.30;;
23634;SDS011;11994;51.038;16.974;2023-02-28T08:13:05;20.80;;;15.50;;
23634;SDS011;11994;51.038;16.974;2023-02-28T08:15:30;20.30;;;14.50;;
23634;SDS011;11994;51.038;16.974;2023-02-28T08:17:56;20.60;;;14.60;;
23634;SDS011;11994;51.038;16.974;2023-02-28T08:20:22;22.30;;;14.40;;
23634;SDS011;11994;51.038;16.974;2023-02-28T08:22:48;19.40;;;13.80;;
23634;SDS011;11994;51.038;16.974;2023-02-28T08:25:13;20.90;;;14.10;;
23634;SDS011;11994;51.038;16.974;2023-02-28T08:27:39;19.00;;;13.50;;
23634;SDS011;11994;51.038;16.974;2023-02-28T08:30:04;19.80;;;14.00;;
23634;SDS011;11994;51.038;16.974;2023-02-28T08:32:31;20.40;;;14.50;;
23634;SDS011;11994;51.038;16.974;2023-02-28T08:34:58;17.80;;;12.30;;
23634;SDS011;11994;51.038;16.974;2023-02-28T08:37:23;16.40;;;11.90;;
23634;SDS011;11994;51.038;16.974;2023-02-28T08:39:49;16.50;;;12.10;;
23634;SDS011;11994;51.038;16.974;2023-02-28T08:42:14;18.60;;;12.10;;
23634;SDS011;11994;51.038;16.974;2023-02-28T08:44:39;14.20;;;11.10;;
23634;SDS011;11994;51.038;16.974;2023-02-28T08:47:05;14.00;;;11.20;;
23634;SDS011;11994;51.038;16.974;2023-02-28T08:49:31;16.20;;;11.50;;
23634;SDS011;11994;51.038;16.974;2023-02-28T08:51:56;14.30;;;10.30;;
23634;SDS011;11994;51.038;16.974;2023-02-28T08:54:22;16.20;;;11.90;;
23634;SDS011;11994;51.038;16.974;2023-02-28T08:56:48;15.70;;;12.20;;
23634;SDS011;11994;51.038;16.974;2023-02-28T08:59:13;16.90;;;12.50;;
23634;SDS011;11994;51.038;16.974;2023-02-28T09:01:39;17.80;;;12.00;;
23634;SDS011;11994;51.038;16.974;2023-02-28T09:04:06;17.00;;;11.80;;
23634;SDS011;11994;51.038;16.974;2023-02-28T09:06:33;13.10;;;11.30;;
23634;SDS011;11994;51.038;16.974;2023-02-28T09:08:59;16.20;;;11.80;;
23634;SDS011;11994;51.038;16.974;2023-02-28T09:11:26;17.30;;;12.10;;
23634;SDS011;11994;51.038;16.974;2023-02-28T09:13:52;15.40;;;12.00;;
23634;SDS011;11994;51.038;16.974;2023-02-28T09:16:18;15.20;;;11.50;;
23634;SDS011;11994;51.038;16.974;2023-02-28T09:18:44;17.30;;;12.60;;
23634;SDS011;11994;51.038;16.974;2023-02-28T09:21:11;16.90;;;12.60;;
23634;SDS011;11994;51.038;16.974;2023-02-28T09:23:41;15.80;;;10.90;;
23634;SDS011;11994;51.038;16.974;2023-02-28T09:26:14;14.30;;;10.70;;
23634;SDS011;11994;51.038;16.974;2023-02-28T09:28:40;14.00;;;10.40;;
23634;SDS011;11994;51.038;16.974;2023-02-28T09:31:05;18.10;;;10.70;;
23634;SDS011;11994;51.038;16.974;2023-02-28T09:33:31;14.00;;;11.00;;
23634;SDS011;11994;51.038;16.974;2023-02-28T09:36:00;13.40;;;10.60;;
23634;SDS011;11994;51.038;16.974;2023-02-28T09:38:27;16.80;;;11.00;;
23634;SDS011;11994;51.038;16.974;2023-02-28T09:40:57;16.20;;;11.00;;
23634;SDS011;11994;51.038;16.974;2023-02-28T09:43:26;17.10;;;11.30;;
23634;SDS011;11994;51.038;16.974;2023-02-28T09:46:00;14.30;;;10.80;;
23634;SDS011;11994;51.038;16.974;2023-02-28T09:48:37;20.80;;;11.50;;
23634;SDS011;11994;51.038;16.974;2023-02-28T09:54:13;12.60;;;10.20;;
23634;SDS011;11994;51.038;16.974;2023-02-28T09:56:44;14.40;;;11.20;;
23634;SDS011;11994;51.038;16.974;2023-02-28T10:02:01;14.80;;;9.40;;
23634;SDS011;11994;51.038;16.974;2023-02-28T10:04:47;22.20;;;11.00;;
23634;SDS011;11994;51.038;16.974;2023-02-28T10:10:37;15.40;;;10.10;;
23634;SDS011;11994;51.038;16.974;2023-02-28T10:13:17;12.40;;;8.10;;
23634;SDS011;11994;51.038;16.974;2023-02-28T10:15:51;15.90;;;8.20;;
23634;SDS011;11994;51.038;16.974;2023-02-28T10:18:21;13.80;;;9.40;;
23634;SDS011;11994;51.038;16.974;2023-02-28T10:23:21;16.10;;;9.80;;
23634;SDS011;11994;51.038;16.974;2023-02-28T10:26:26;14.00;;;10.10;;
23634;SDS011;11994;51.038;16.974;2023-02-28T10:28:45;10.60;;;8.60;;
23634;SDS011;11994;51.038;16.974;2023-02-28T10:31:11;13.10;;;7.90;;
23634;SDS011;11994;51.038;16.974;2023-02-28T10:33:42;12.20;;;7.80;;
23634;SDS011;11994;51.038;16.974;2023-02-28T10:36:08;13.10;;;8.10;;
23634;SDS011;11994;51.038;16.974;2023-02-28T10:38:39;11.70;;;8.30;;
23634;SDS011;11994;51.038;16.974;2023-02-28T10:41:06;12.00;;;8.00;;
23634;SDS011;11994;51.038;16.974;2023-02-28T10:43:37;14.70;;;8.70;;
23634;SDS011;11994;51.038;16.974;2023-02-28T10:48:34;17.60;;;9.50;;
23634;SDS011;11994;51.038;16.974;2023-02-28T10:51:02;15.50;;;9.40;;
23634;SDS011;11994;51.038;16.974;2023-02-28T11:01:44;16.00;;;9.80;;
23634;SDS011;11994;51.038;16.974;2023-02-28T11:04:44;14.20;;;9.30;;
23634;SDS011;11994;51.038;16.974;2023-02-28T11:07:26;14.80;;;10.40;;
23634;SDS011;11994;51.038;16.974;2023-02-28T11:09:52;15.70;;;9.90;;
23634;SDS011;11994;51.038;16.974;2023-02-28T11:12:22;13.10;;;9.80;;
23634;SDS011;11994;51.038;16.974;2023-02-28T11:14:58;14.40;;;10.10;;
23634;SDS011;11994;51.038;16.974;2023-02-28T11:17:28;11.90;;;9.30;;
23634;SDS011;11994;51.038;16.974;2023-02-28T11:19:57;14.30;;;10.20;;
23634;SDS011;11994;51.038;16.974;2023-02-28T11:22:27;12.10;;;9.30;;
23634;SDS011;11994;51.038;16.974;2023-02-28T11:24:56;15.80;;;10.20;;
23634;SDS011;11994;51.038;16.974;2023-02-28T11:29:56;15.30;;;10.90;;
23634;SDS011;11994;51.038;16.974;2023-02-28T11:32:29;13.40;;;10.40;;
23634;SDS011;11994;51.038;16.974;2023-02-28T11:37:36;12.90;;;9.70;;
23634;SDS011;11994;51.038;16.974;2023-02-28T11:40:04;15.20;;;10.60;;
23634;SDS011;11994;51.038;16.974;2023-02-28T11:42:50;16.10;;;10.80;;
23634;SDS011;11994;51.038;16.974;2023-02-28T12:02:08;16.10;;;10.30;;
23634;SDS011;11994;51.038;16.974;2023-02-28T12:04:52;14.00;;;10.40;;
23634;SDS011;11994;51.038;16.974;2023-02-28T12:13:16;15.40;;;11.00;;
23634;SDS011;11994;51.038;16.974;2023-02-28T12:18:27;16.30;;;10.90;;
23634;SDS011;11994;51.038;16.974;2023-02-28T12:21:24;20.10;;;11.30;;
23634;SDS011;11994;51.038;16.974;2023-02-28T12:24:21;13.00;;;9.80;;
23634;SDS011;11994;51.038;16.974;2023-02-28T12:26:54;17.80;;;10.50;;
23634;SDS011;11994;51.038;16.974;2023-02-28T12:29:25;15.90;;;10.40;;
23634;SDS011;11994;51.038;16.974;2023-02-28T12:32:29;15.70;;;9.90;;
23634;SDS011;11994;51.038;16.974;2023-02-28T12:35:23;16.20;;;11.00;;
23634;SDS011;11994;51.038;16.974;2023-02-28T12:37:49;15.80;;;10.60;;
23634;SDS011;11994;51.038;16.974;2023-02-28T12:40:21;19.20;;;12.00;;
23634;SDS011;11994;51.038;16.974;2023-02-28T12:43:02;21.90;;;11.20;;
23634;SDS011;11994;51.038;16.974;2023-02-28T12:48:25;16.20;;;11.30;;
23634;SDS011;11994;51.038;16.974;2023-02-28T12:50:56;16.10;;;11.30;;
23634;SDS011;11994;51.038;16.974;2023-02-28T13:01:13;18.40;;;11.90;;
23634;SDS011;11994;51.038;16.974;2023-02-28T13:09:17;15.20;;;11.20;;
23634;SDS011;11994;51.038;16.974;2023-02-28T13:11:44;17.20;;;11.40;;
23634;SDS011;11994;51.038;16.974;2023-02-28T13:14:22;16.60;;;10.40;;
23634;SDS011;11994;51.038;16.974;2023-02-28T13:19:25;14.20;;;10.20;;
23634;SDS011;11994;51.038;16.974;2023-02-28T13:21:53;16.70;;;10.80;;
23634;SDS011;11994;51.038;16.974;2023-02-28T13:29:31;19.70;;;11.40;;
23634;SDS011;11994;51.038;16.974;2023-02-28T13:34:30;16.40;;;10.90;;
23634;SDS011;11994;51.038;16.974;2023-02-28T13:39:48;23.80;;;11.50;;
23634;SDS011;11994;51.038;16.974;2023-02-28T13:47:34;18.20;;;11.20;;
23634;SDS011;11994;51.038;16.974;2023-02-28T13:55:44;25.20;;;13.60;;
23634;SDS011;11994;51.038;16.974;2023-02-28T14:01:00;19.30;;;12.50;;
23634;SDS011;11994;51.038;16.974;2023-02-28T14:06:29;17.60;;;12.00;;
23634;SDS011;11994;51.038;16.974;2023-02-28T14:09:03;19.00;;;12.10;;
23634;SDS011;11994;51.038;16.974;2023-02-28T14:11:44;20.20;;;11.90;;
23634;SDS011;11994;51.038;16.974;2023-02-28T14:14:52;20.00;;;12.30;;
23634;SDS011;11994;51.038;16.974;2023-02-28T14:19:32;17.90;;;11.70;;
23634;SDS011;11994;51.038;16.974;2023-02-28T14:22:19;20.50;;;11.90;;
23634;SDS011;11994;51.038;16.974;2023-02-28T14:25:18;20.00;;;11.70;;
23634;SDS011;11994;51.038;16.974;2023-02-28T14:28:03;20.90;;;12.80;;
23634;SDS011;11994;51.038;16.974;2023-02-28T14:33:25;17.80;;;11.70;;
23634;SDS011;11994;51.038;16.974;2023-02-28T14:36:10;20.00;;;12.50;;
23634;SDS011;11994;51.038;16.974;2023-02-28T14:38:42;23.00;;;11.70;;
23634;SDS011;11994;51.038;16.974;2023-02-28T14:41:37;19.40;;;12.20;;
23634;SDS011;11994;51.038;16.974;2023-02-28T14:44:20;20.70;;;12.70;;
23634;SDS011;11994;51.038;16.974;2023-02-28T14:46:49;19.50;;;12.20;;
23634;SDS011;11994;51.038;16.974;2023-02-28T14:49:24;20.20;;;12.00;;
23634;SDS011;11994;51.038;16.974;2023-02-28T14:54:55;20.20;;;12.10;;
23634;SDS011;11994;51.038;16.974;2023-02-28T14:57:30;18.30;;;12.40;;
23634;SDS011;11994;51.038;16.974;2023-02-28T15:00:46;20.30;;;12.00;;
23634;SDS011;11994;51.038;16.974;2023-02-28T15:02:54;17.90;;;11.70;;
23634;SDS011;11994;51.038;16.974;2023-02-28T15:05:33;19.00;;;11.50;;
23634;SDS011;11994;51.038;16.974;2023-02-28T15:08:09;19.50;;;12.10;;
23634;SDS011;11994;51.038;16.974;2023-02-28T15:10:38;26.60;;;12.10;;
23634;SDS011;11994;51.038;16.974;2023-02-28T15:13:06;18.40;;;11.50;;
23634;SDS011;11994;51.038;16.974;2023-02-28T15:15:43;18.90;;;11.90;;
23634;SDS011;11994;51.038;16.974;2023-02-28T15:19:02;29.60;;;11.80;;
23634;SDS011;11994;51.038;16.974;2023-02-28T15:21:11;18.80;;;11.10;;
23634;SDS011;11994;51.038;16.974;2023-02-28T15:23:41;18.20;;;12.50;;
23634;SDS011;11994;51.038;16.974;2023-02-28T15:26:12;18.80;;;12.60;;
23634;SDS011;11994;51.038;16.974;2023-02-28T15:28:41;20.10;;;12.80;;
23634;SDS011;11994;51.038;16.974;2023-02-28T15:31:18;22.10;;;14.10;;
23634;SDS011;11994;51.038;16.974;2023-02-28T15:33:58;26.60;;;16.20;;
23634;SDS011;11994;51.038;16.974;2023-02-28T15:36:30;24.90;;;16.20;;
23634;SDS011;11994;51.038;16.974;2023-02-28T15:38:59;27.20;;;17.10;;
23634;SDS011;11994;51.038;16.974;2023-02-28T15:41:26;28.40;;;16.30;;
23634;SDS011;11994;51.038;16.974;2023-02-28T15:46:43;24.20;;;14.80;;
23634;SDS011;11994;51.038;16.974;2023-02-28T15:49:19;24.80;;;15.50;;
23634;SDS011;11994;51.038;16.974;2023-02-28T15:51:46;24.90;;;15.00;;
23634;SDS011;11994;51.038;16.974;2023-02-28T15:54:34;22.20;;;15.40;;
23634;SDS011;11994;51.038;16.974;2023-02-28T15:57:04;30.00;;;16.30;;
23634;SDS011;11994;51.038;16.974;2023-02-28T15:59:33;26.90;;;16.30;;
23634;SDS011;11994;51.038;16.974;2023-02-28T16:02:17;23.20;;;15.90;;
23634;SDS011;11994;51.038;16.974;2023-02-28T16:07:36;28.50;;;18.00;;
23634;SDS011;11994;51.038;16.974;2023-02-28T16:10:05;30.90;;;16.70;;
23634;SDS011;11994;51.038;16.974;2023-02-28T16:12:33;29.00;;;17.00;;
23634;SDS011;11994;51.038;16.974;2023-02-28T16:15:02;29.20;;;17.10;;
23634;SDS011;11994;51.038;16.974;2023-02-28T16:17:37;30.90;;;17.20;;
23634;SDS011;11994;51.038;16.974;2023-02-28T16:20:15;25.80;;;16.00;;
23634;SDS011;11994;51.038;16.974;2023-02-28T16:22:42;29.60;;;16.00;;
23634;SDS011;11994;51.038;16.974;2023-02-28T16:25:10;27.10;;;16.90;;
23634;SDS011;11994;51.038;16.974;2023-02-28T16:27:37;29.40;;;16.50;;
23634;SDS011;11994;51.038;16.974;2023-02-28T16:30:03;26.00;;;16.70;;
23634;SDS011;11994;51.038;16.974;2023-02-28T16:32:31;29.00;;;17.60;;
23634;SDS011;11994;51.038;16.974;2023-02-28T16:34:59;25.50;;;17.10;;
23634;SDS011;11994;51.038;16.974;2023-02-28T16:37:25;27.60;;;16.90;;
23634;SDS011;11994;51.038;16.974;2023-02-28T16:39:51;26.20;;;16.50;;
23634;SDS011;11994;51.038;16.974;2023-02-28T16:42:24;25.70;;;16.40;;
23634;SDS011;11994;51.038;16.974;2023-02-28T16:44:52;22.10;;;15.40;;
23634;SDS011;11994;51.038;16.974;2023-02-28T16:47:18;21.00;;;13.60;;
23634;SDS011;11994;51.038;16.974;2023-02-28T16:49:44;21.70;;;13.10;;
23634;SDS011;11994;51.038;16.974;2023-02-28T16:52:10;21.70;;;13.40;;
23634;SDS011;11994;51.038;16.974;2023-02-28T16:54:36;20.50;;;12.90;;
23634;SDS011;11994;51.038;16.974;2023-02-28T16:57:03;20.00;;;12.40;;
23634;SDS011;11994;51.038;16.974;2023-02-28T16:59:29;22.70;;;13.50;;
23634;SDS011;11994;51.038;16.974;2023-02-28T17:01:55;21.20;;;12.90;;